Paglia Orba — FNIL — position and weather

sailwx.info

Track history (hours):
 
Tides and Currents Weather Stations Pressure Air Temp Water Temp Dewpoint Dewpoint Depression Visibility Wind Speed Wind Dir Waves Ship Positions

Paglia Orba

Last reported at 2018-Jun-24 16:27 UTC. Time now 2018-Jun-24 16:29 UTC.
Position N 43°19' E 005°22'.

Length 172 m; beam 31 m.

Type: Passenger vessel. MMSI: 227184000.

Date/timePositionNaut miles runAvg speedWind from/ knotsBaromVisibWave heightAir tempDewpointWater temp
2018-Jun-24 16:27N 43°19' E 005°22'0 0.0
2018-Jun-24 15:57N 43°19' E 005°22'0 0.0
2018-Jun-24 15:30N 43°19' E 005°22'0 0.0
2018-Jun-24 15:00N 43°19' E 005°22'0 0.0
2018-Jun-24 14:21N 43°19' E 005°22'0 0.0
2018-Jun-24 14:00N 43°19' E 005°22'0 0.0
2018-Jun-24 13:30N 43°19' E 005°22'0 0.0
2018-Jun-24 13:00N 43°19' E 005°22'0 0.0
2018-Jun-24 12:30N 43°19' E 005°22'0 0.0
2018-Jun-24 11:54N 43°19' E 005°22'0 0.0
2018-Jun-24 11:30N 43°19' E 005°22'0 0.0
2018-Jun-24 11:00N 43°19' E 005°22'0 0.0
2018-Jun-24 10:30N 43°19' E 005°22'0 0.0
2018-Jun-24 10:00N 43°19' E 005°22'0 0.0
2018-Jun-24 09:30N 43°19' E 005°22'0 0.0
2018-Jun-24 08:57N 43°19' E 005°22'0 0.0
2018-Jun-24 08:30N 43°19' E 005°22'0 0.0
2018-Jun-24 08:00N 43°19' E 005°22'0 0.0
2018-Jun-24 07:30N 43°19' E 005°22'0 0.0
2018-Jun-24 06:50N 43°19' E 005°22'0 0.0
2018-Jun-24 06:29N 43°19' E 005°22'0 0.0
2018-Jun-24 06:00N 43°19' E 005°22'1 1.2
2018-Jun-24 05:31N 43°18' E 005°22'4313.5
2018-Jun-24 02:19N 42°50' E 006°07'515.2
2018-Jun-24 01:59N 42°48' E 006°13'715.1
2018-Jun-24 01:30N 42°44' E 006°21'1614.9
2018-Jun-24 00:24N 42°36' E 006°41'614.0
2018-Jun-23 23:59N 42°33' E 006°48'713.8
2018-Jun-23 23:30N 42°30' E 006°56'714.0
2018-Jun-23 23:01N 42°27' E 007°04'714.0
2018-Jun-23 22:30N 42°23' E 007°12'15 0.6
2018-Jun-22 23:00N 42°30' E 006°55'917.2
2018-Jun-22 22:30N 42°35' E 006°45'7416.6
2018-Jun-22 18:03N 43°13' E 005°18'117.2
2018-Jun-22 18:00N 43°14' E 005°18'611.3
2018-Jun-22 17:30N 43°19' E 005°22'0 0.2
2018-Jun-22 16:59N 43°19' E 005°22'0 0.0
2018-Jun-22 16:29N 43°19' E 005°22'0 0.0
2018-Jun-22 15:59N 43°19' E 005°22'0 0.0
2018-Jun-22 15:26N 43°19' E 005°22'0 0.0
2018-Jun-22 14:59N 43°19' E 005°22'0 0.0
2018-Jun-22 14:23N 43°19' E 005°22'0 0.0
2018-Jun-22 13:59N 43°19' E 005°22'0 0.0
2018-Jun-22 13:29N 43°19' E 005°22'0 0.0
2018-Jun-22 12:56N 43°19' E 005°22'0 0.0
2018-Jun-22 11:57N 43°19' E 005°22'0 0.0
2018-Jun-22 11:29N 43°19' E 005°22'0 0.0
2018-Jun-22 11:00N 43°19' E 005°22'0 0.0
2018-Jun-22 10:30N 43°19' E 005°22'0 0.0
2018-Jun-22 10:00N 43°19' E 005°22'0 0.0
2018-Jun-22 09:30N 43°19' E 005°22'0 0.0
2018-Jun-22 09:01N 43°19' E 005°22'0 0.0
2018-Jun-22 08:28N 43°19' E 005°22'0 0.0
2018-Jun-22 07:58N 43°19' E 005°22'0 0.0
2018-Jun-22 07:29N 43°19' E 005°22'0 0.0
2018-Jun-22 07:00N 43°19' E 005°22'0 0.0
2018-Jun-22 06:30N 43°19' E 005°22'0 0.0
2018-Jun-22 06:00N 43°19' E 005°22'0 0.0
2018-Jun-22 05:30N 43°19' E 005°22'0 0.2
2018-Jun-22 05:00N 43°19' E 005°22'4 8.9
2018-Jun-22 04:30N 43°15' E 005°18'6917.0
2018-Jun-22 00:26N 42°38' E 006°38'614.5
2018-Jun-22 00:00N 42°34' E 006°45'714.5
2018-Jun-21 23:30N 42°31' E 006°54'714.6
2018-Jun-21 23:00N 42°27' E 007°03'714.8
2018-Jun-21 22:30N 42°23' E 007°11'714.5
2018-Jun-21 22:00N 42°20' E 007°20'714.6
2018-Jun-21 21:30N 42°16' E 007°28'714.8
2018-Jun-21 21:00N 42°13' E 007°37'815.1
2018-Jun-21 20:30N 42°09' E 007°46'1015.3
2018-Jun-21 19:53N 42°04' E 007°57'615.4
2018-Jun-21 19:30N 42°01' E 008°04'1215.3
2018-Jun-21 18:45N 41°56' E 008°17'16 1.1
2018-Jun-21 04:07N 41°50' E 008°38'16516.9
2018-Jun-20 18:22N 43°09' E 005°22'615.2
2018-Jun-20 17:58N 43°15' E 005°19'4 6.0
2018-Jun-20 17:18N 43°18' E 005°22'0 0.0
2018-Jun-20 17:00N 43°18' E 005°22'0 0.0
2018-Jun-20 16:24N 43°18' E 005°22'0 0.0
2018-Jun-20 15:54N 43°18' E 005°22'0 0.0
2018-Jun-20 15:18N 43°18' E 005°22'0 0.0
2018-Jun-20 11:06N 43°18' E 005°22'0 0.0
2018-Jun-20 11:00N 43°18' E 005°22'0 0.0
2018-Jun-20 08:42N 43°18' E 005°22'0 0.0
2018-Jun-20 07:36N 43°18' E 005°22'0 0.0
2018-Jun-20 07:12N 43°18' E 005°22'0 0.0
2018-Jun-20 06:57N 43°18' E 005°22'0 0.0
2018-Jun-20 06:24N 43°18' E 005°22'0 0.0
2018-Jun-20 06:00N 43°18' E 005°22'0 0.0
2018-Jun-20 05:30N 43°18' E 005°22'0 0.0
2018-Jun-20 05:00N 43°18' E 005°22'0 0.0
2018-Jun-20 04:27N 43°18' E 005°22'0 0.0
2018-Jun-20 04:00N 43°18' E 005°22'0 0.0
2018-Jun-20 03:30N 43°18' E 005°22'0 0.0
2018-Jun-20 03:00N 43°18' E 005°22'0 0.0
2018-Jun-20 02:30N 43°18' E 005°22'0 0.0
2018-Jun-20 02:00N 43°18' E 005°22'0 0.0
2018-Jun-20 01:30N 43°18' E 005°22'0 0.0
2018-Jun-20 01:00N 43°18' E 005°22'0 0.0
2018-Jun-20 00:30N 43°18' E 005°22'0 0.0
2018-Jun-20 00:00N 43°18' E 005°22'0 0.0
2018-Jun-19 23:30N 43°18' E 005°22'0 0.0
2018-Jun-19 23:00N 43°18' E 005°22'0 0.0
2018-Jun-19 22:30N 43°18' E 005°22'0 0.0
2018-Jun-19 22:00N 43°18' E 005°22'0 0.0
2018-Jun-19 21:30N 43°18' E 005°22'0 0.0
2018-Jun-19 21:00N 43°18' E 005°22'0 0.0
2018-Jun-19 20:30N 43°18' E 005°22'0 0.0
2018-Jun-19 20:00N 43°18' E 005°22'0 0.0
2018-Jun-19 19:30N 43°18' E 005°22'0 0.0
2018-Jun-19 19:00N 43°18' E 005°22'0 0.0
2018-Jun-19 18:30N 43°18' E 005°22'0 0.2
2018-Jun-19 18:00N 43°18' E 005°22'4 8.4
2018-Jun-19 17:30N 43°15' E 005°18'3813.1
2018-Jun-19 14:38N 42°56' E 006°03'1614.6
2018-Jun-19 13:32N 42°48' E 006°22'015.0
2018-Jun-19 13:30N 42°48' E 006°23'715.0
2018-Jun-19 13:00N 42°48' E 006°33'714.8
2018-Jun-19 12:30N 42°47' E 006°43'714.1
2018-Jun-19 12:00N 42°47' E 006°52'714.1
2018-Jun-19 11:30N 42°47' E 007°02'714.5
2018-Jun-19 11:00N 42°47' E 007°12'714.6
2018-Jun-19 10:30N 42°47' E 007°22'714.4
2018-Jun-19 10:00N 42°47' E 007°32'714.4
2018-Jun-19 09:30N 42°48' E 007°41'714.2
2018-Jun-19 09:00N 42°47' E 007°51'714.2
2018-Jun-19 08:30N 42°46' E 008°01'612.6
2018-Jun-19 08:00N 42°45' E 008°09'713.9
2018-Jun-19 07:30N 42°44' E 008°19'713.6
2018-Jun-19 07:01N 42°43' E 008°28'713.6
2018-Jun-19 06:30N 42°42' E 008°37'713.8
2018-Jun-19 06:00N 42°41' E 008°46'713.9
2018-Jun-19 05:30N 42°39' E 008°56'1 2.2
2018-Jun-19 05:00N 42°38' E 008°56'0 0.1
2018-Jun-19 04:30N 42°38' E 008°56'611.1
2018-Jun-19 04:00N 42°40' E 008°49'917.5
2018-Jun-19 03:29N 42°41' E 008°37'816.4
2018-Jun-19 02:59N 42°41' E 008°26'715.4
2018-Jun-19 02:30N 42°41' E 008°16'815.2
2018-Jun-19 02:00N 42°41' E 008°05'815.2
2018-Jun-19 01:30N 42°41' E 007°55'815.4
2018-Jun-19 00:58N 42°40' E 007°44'915.3
2018-Jun-19 00:21N 42°40' E 007°31'10712.3
2018-Jun-18 15:37N 43°12' E 005°11'311.5
2018-Jun-18 15:19N 43°16' E 005°11'410.7
2018-Jun-18 14:57N 43°18' E 005°15'5 2.3
2018-Jun-18 12:56N 43°20' E 005°21'0 0.0
2018-Jun-18 11:17N 43°20' E 005°21'0 0.0
2018-Jun-18 10:59N 43°20' E 005°21'0 0.0
2018-Jun-18 10:29N 43°20' E 005°21'0 0.0
2018-Jun-18 09:41N 43°20' E 005°21'0 0.0
2018-Jun-18 09:08N 43°20' E 005°21'0 0.0
2018-Jun-18 07:02N 43°20' E 005°21'0 0.0
2018-Jun-18 06:59N 43°20' E 005°21'0 0.0
2018-Jun-18 06:29N 43°20' E 005°21'0 0.0
2018-Jun-18 05:56N 43°20' E 005°21'0 0.0
2018-Jun-18 05:23N 43°20' E 005°21'0 0.0
2018-Jun-18 04:56N 43°20' E 005°21'0 0.0
2018-Jun-18 04:26N 43°20' E 005°21'0 0.0
2018-Jun-18 03:56N 43°20' E 005°21'0 0.0
2018-Jun-18 03:26N 43°20' E 005°21'0 0.0
2018-Jun-18 02:59N 43°20' E 005°21'0 0.0
2018-Jun-18 02:29N 43°20' E 005°21'0 0.0
2018-Jun-18 01:59N 43°20' E 005°21'0 0.0
2018-Jun-18 01:29N 43°20' E 005°21'0 0.0
2018-Jun-18 00:53N 43°20' E 005°21'0 0.0
2018-Jun-18 00:26N 43°20' E 005°21'0 0.0
2018-Jun-17 23:53N 43°20' E 005°21'0 0.0
2018-Jun-17 23:29N 43°20' E 005°21'0 0.0
2018-Jun-17 22:56N 43°20' E 005°21'0 0.0
2018-Jun-17 22:26N 43°20' E 005°21'0 0.0
2018-Jun-17 21:56N 43°20' E 005°21'0 0.0
2018-Jun-17 21:29N 43°20' E 005°21'0 0.0
2018-Jun-17 20:56N 43°20' E 005°21'0 0.0
2018-Jun-17 20:26N 43°20' E 005°21'0 0.0
2018-Jun-17 19:59N 43°20' E 005°21'0 0.0
2018-Jun-17 19:26N 43°20' E 005°21'0 0.0
2018-Jun-17 18:59N 43°20' E 005°21'0 0.0
2018-Jun-17 18:29N 43°20' E 005°21'0 0.0
2018-Jun-17 17:59N 43°20' E 005°21'0 0.0
2018-Jun-17 17:26N 43°20' E 005°21'0 0.0
2018-Jun-17 16:53N 43°20' E 005°21'0 0.0
2018-Jun-17 16:29N 43°20' E 005°21'0 0.0
2018-Jun-17 15:56N 43°20' E 005°21'0 0.0
2018-Jun-17 15:29N 43°20' E 005°21'0 0.0
2018-Jun-17 14:59N 43°20' E 005°21'0 0.0
2018-Jun-17 14:29N 43°20' E 005°21'0 0.0
2018-Jun-17 13:59N 43°20' E 005°21'0 0.0
2018-Jun-17 13:29N 43°20' E 005°21'0 0.0
2018-Jun-17 12:56N 43°20' E 005°21'0 0.0
2018-Jun-17 12:29N 43°20' E 005°21'0 0.0
2018-Jun-17 11:59N 43°20' E 005°21'0 0.0
2018-Jun-17 11:29N 43°20' E 005°21'0 0.0
2018-Jun-17 10:59N 43°20' E 005°21'0 0.0
2018-Jun-17 10:26N 43°20' E 005°21'0 0.0
2018-Jun-17 09:56N 43°20' E 005°21'0 0.0
2018-Jun-17 09:26N 43°20' E 005°21'0 0.0
2018-Jun-17 08:59N 43°20' E 005°21'0 0.0
2018-Jun-17 08:29N 43°20' E 005°21'0 0.0
2018-Jun-17 07:59N 43°20' E 005°21'0 0.0
2018-Jun-17 07:29N 43°20' E 005°21'0 0.0
2018-Jun-17 06:59N 43°20' E 005°21'0 0.0
2018-Jun-17 06:30N 43°20' E 005°21'1 2.5
2018-Jun-17 06:00N 43°21' E 005°20'510.8
2018-Jun-17 05:31N 43°15' E 005°18'3818.3
2018-Jun-17 03:26N 42°51' E 005°58'1018.0
2018-Jun-17 02:52N 42°46' E 006°10'616.9
2018-Jun-17 02:31N 42°42' E 006°17'917.3
2018-Jun-17 02:00N 42°38' E 006°26'917.3
2018-Jun-17 01:30N 42°33' E 006°36'917.2
2018-Jun-17 00:59N 42°28' E 006°46'917.6
2018-Jun-17 00:29N 42°23' E 006°57'817.7
2018-Jun-17 00:01N 42°18' E 007°06'918.0
2018-Jun-16 23:30N 42°13' E 007°16'918.0
2018-Jun-16 23:00N 42°08' E 007°26'36 1.6
2018-Jun-16 01:13N 41°48' E 008°05'518.2
2018-Jun-16 00:57N 41°50' E 008°00'818.2
2018-Jun-16 00:30N 41°55' E 007°50'918.3
2018-Jun-16 00:00N 41°60' E 007°41'918.1
2018-Jun-15 23:30N 42°05' E 007°31'918.0
2018-Jun-15 22:59N 42°11' E 007°21'918.0
2018-Jun-15 22:31N 42°15' E 007°11'917.6
2018-Jun-15 22:01N 42°20' E 007°00'917.6
2018-Jun-15 21:31N 42°24' E 006°50'918.0
2018-Jun-15 21:01N 42°29' E 006°40'918.1
2018-Jun-15 20:30N 42°35' E 006°31'6417.9
2018-Jun-15 16:54N 43°12' E 005°19'513.1
2018-Jun-15 16:30N 43°18' E 005°20'1 2.5
2018-Jun-15 15:58N 43°18' E 005°22'0 0.0
2018-Jun-15 15:31N 43°18' E 005°22'0 0.0
2018-Jun-15 15:01N 43°18' E 005°22'0 0.0
2018-Jun-15 13:55N 43°18' E 005°22'0 0.0
2018-Jun-15 13:25N 43°18' E 005°22'0 0.0
2018-Jun-15 13:01N 43°18' E 005°22'0 0.0
2018-Jun-15 12:31N 43°18' E 005°22'0 0.0
2018-Jun-15 11:58N 43°18' E 005°22'0 0.0
2018-Jun-15 11:31N 43°18' E 005°22'0 0.0
2018-Jun-15 11:01N 43°18' E 005°22'0 0.0
2018-Jun-15 10:31N 43°18' E 005°22'0 0.0
2018-Jun-15 10:01N 43°18' E 005°22'0 0.0
2018-Jun-15 09:28N 43°18' E 005°22'0 0.0
2018-Jun-15 09:01N 43°18' E 005°22'0 0.0
2018-Jun-15 08:28N 43°18' E 005°22'0 0.0
2018-Jun-15 07:55N 43°18' E 005°22'0 0.0
2018-Jun-15 07:25N 43°18' E 005°22'0 0.0
2018-Jun-15 07:01N 43°18' E 005°22'0 0.0
2018-Jun-15 06:28N 43°18' E 005°22'0 0.0
2018-Jun-15 06:00N 43°18' E 005°22'5 9.4
2018-Jun-15 05:30N 43°15' E 005°18'4717.6
2018-Jun-15 02:49N 42°46' E 006°09'619.5
2018-Jun-15 02:30N 42°43' E 006°16'  
Track history (hours):
 
Tides and Currents Weather Stations Pressure Air Temp Water Temp Dewpoint Dewpoint Depression Visibility Wind Speed Wind Dir Waves Ship Positions

Paglia Orba

Last reported at 2018-Jun-24 16:27 UTC. Time now 2018-Jun-24 16:29 UTC.
Position N 43°19' E 005°22'.

Length 172 m; beam 31 m.

Type: Passenger vessel. MMSI: 227184000.

Date/timePositionNaut miles runAvg speedWind from/ knotsBaromVisibWave heightAir tempDewpointWater temp
2018-Jun-24 16:27N 43°19' E 005°22'0 0.0
2018-Jun-24 15:57N 43°19' E 005°22'0 0.0
2018-Jun-24 15:30N 43°19' E 005°22'0 0.0
2018-Jun-24 15:00N 43°19' E 005°22'0 0.0
2018-Jun-24 14:21N 43°19' E 005°22'0 0.0
2018-Jun-24 14:00N 43°19' E 005°22'0 0.0
2018-Jun-24 13:30N 43°19' E 005°22'0 0.0
2018-Jun-24 13:00N 43°19' E 005°22'0 0.0
2018-Jun-24 12:30N 43°19' E 005°22'0 0.0
2018-Jun-24 11:54N 43°19' E 005°22'0 0.0
2018-Jun-24 11:30N 43°19' E 005°22'0 0.0
2018-Jun-24 11:00N 43°19' E 005°22'0 0.0
2018-Jun-24 10:30N 43°19' E 005°22'0 0.0
2018-Jun-24 10:00N 43°19' E 005°22'0 0.0
2018-Jun-24 09:30N 43°19' E 005°22'0 0.0
2018-Jun-24 08:57N 43°19' E 005°22'0 0.0
2018-Jun-24 08:30N 43°19' E 005°22'0 0.0
2018-Jun-24 08:00N 43°19' E 005°22'0 0.0
2018-Jun-24 07:30N 43°19' E 005°22'0 0.0
2018-Jun-24 06:50N 43°19' E 005°22'0 0.0
2018-Jun-24 06:29N 43°19' E 005°22'0 0.0
2018-Jun-24 06:00N 43°19' E 005°22'1 1.2
2018-Jun-24 05:31N 43°18' E 005°22'4313.5
2018-Jun-24 02:19N 42°50' E 006°07'515.2
2018-Jun-24 01:59N 42°48' E 006°13'715.1
2018-Jun-24 01:30N 42°44' E 006°21'1614.9
2018-Jun-24 00:24N 42°36' E 006°41'614.0
2018-Jun-23 23:59N 42°33' E 006°48'713.8
2018-Jun-23 23:30N 42°30' E 006°56'714.0
2018-Jun-23 23:01N 42°27' E 007°04'714.0
2018-Jun-23 22:30N 42°23' E 007°12'15 0.6
2018-Jun-22 23:00N 42°30' E 006°55'917.2
2018-Jun-22 22:30N 42°35' E 006°45'7416.6
2018-Jun-22 18:03N 43°13' E 005°18'117.2
2018-Jun-22 18:00N 43°14' E 005°18'611.3
2018-Jun-22 17:30N 43°19' E 005°22'0 0.2
2018-Jun-22 16:59N 43°19' E 005°22'0 0.0
2018-Jun-22 16:29N 43°19' E 005°22'0 0.0
2018-Jun-22 15:59N 43°19' E 005°22'0 0.0
2018-Jun-22 15:26N 43°19' E 005°22'0 0.0
2018-Jun-22 14:59N 43°19' E 005°22'0 0.0
2018-Jun-22 14:23N 43°19' E 005°22'0 0.0
2018-Jun-22 13:59N 43°19' E 005°22'0 0.0
2018-Jun-22 13:29N 43°19' E 005°22'0 0.0
2018-Jun-22 12:56N 43°19' E 005°22'0 0.0
2018-Jun-22 11:57N 43°19' E 005°22'0 0.0
2018-Jun-22 11:29N 43°19' E 005°22'0 0.0
2018-Jun-22 11:00N 43°19' E 005°22'0 0.0
2018-Jun-22 10:30N 43°19' E 005°22'0 0.0
2018-Jun-22 10:00N 43°19' E 005°22'0 0.0
2018-Jun-22 09:30N 43°19' E 005°22'0 0.0
2018-Jun-22 09:01N 43°19' E 005°22'0 0.0
2018-Jun-22 08:28N 43°19' E 005°22'0 0.0
2018-Jun-22 07:58N 43°19' E 005°22'0 0.0
2018-Jun-22 07:29N 43°19' E 005°22'0 0.0
2018-Jun-22 07:00N 43°19' E 005°22'0 0.0
2018-Jun-22 06:30N 43°19' E 005°22'0 0.0
2018-Jun-22 06:00N 43°19' E 005°22'0 0.0
2018-Jun-22 05:30N 43°19' E 005°22'0 0.2
2018-Jun-22 05:00N 43°19' E 005°22'4 8.9
2018-Jun-22 04:30N 43°15' E 005°18'6917.0
2018-Jun-22 00:26N 42°38' E 006°38'614.5
2018-Jun-22 00:00N 42°34' E 006°45'714.5
2018-Jun-21 23:30N 42°31' E 006°54'714.6
2018-Jun-21 23:00N 42°27' E 007°03'714.8
2018-Jun-21 22:30N 42°23' E 007°11'714.5
2018-Jun-21 22:00N 42°20' E 007°20'714.6
2018-Jun-21 21:30N 42°16' E 007°28'714.8
2018-Jun-21 21:00N 42°13' E 007°37'815.1
2018-Jun-21 20:30N 42°09' E 007°46'1015.3
2018-Jun-21 19:53N 42°04' E 007°57'615.4
2018-Jun-21 19:30N 42°01' E 008°04'1215.3
2018-Jun-21 18:45N 41°56' E 008°17'16 1.1
2018-Jun-21 04:07N 41°50' E 008°38'16516.9
2018-Jun-20 18:22N 43°09' E 005°22'615.2
2018-Jun-20 17:58N 43°15' E 005°19'4 6.0
2018-Jun-20 17:18N 43°18' E 005°22'0 0.0
2018-Jun-20 17:00N 43°18' E 005°22'0 0.0
2018-Jun-20 16:24N 43°18' E 005°22'0 0.0
2018-Jun-20 15:54N 43°18' E 005°22'0 0.0
2018-Jun-20 15:18N 43°18' E 005°22'0 0.0
2018-Jun-20 11:06N 43°18' E 005°22'0 0.0
2018-Jun-20 11:00N 43°18' E 005°22'0 0.0
2018-Jun-20 08:42N 43°18' E 005°22'0 0.0
2018-Jun-20 07:36N 43°18' E 005°22'0 0.0
2018-Jun-20 07:12N 43°18' E 005°22'0 0.0
2018-Jun-20 06:57N 43°18' E 005°22'0 0.0
2018-Jun-20 06:24N 43°18' E 005°22'0 0.0
2018-Jun-20 06:00N 43°18' E 005°22'0 0.0
2018-Jun-20 05:30N 43°18' E 005°22'0 0.0
2018-Jun-20 05:00N 43°18' E 005°22'0 0.0
2018-Jun-20 04:27N 43°18' E 005°22'0 0.0
2018-Jun-20 04:00N 43°18' E 005°22'0 0.0
2018-Jun-20 03:30N 43°18' E 005°22'0 0.0
2018-Jun-20 03:00N 43°18' E 005°22'0 0.0
2018-Jun-20 02:30N 43°18' E 005°22'0 0.0
2018-Jun-20 02:00N 43°18' E 005°22'0 0.0
2018-Jun-20 01:30N 43°18' E 005°22'0 0.0
2018-Jun-20 01:00N 43°18' E 005°22'0 0.0
2018-Jun-20 00:30N 43°18' E 005°22'0 0.0
2018-Jun-20 00:00N 43°18' E 005°22'0 0.0
2018-Jun-19 23:30N 43°18' E 005°22'0 0.0
2018-Jun-19 23:00N 43°18' E 005°22'0 0.0
2018-Jun-19 22:30N 43°18' E 005°22'0 0.0
2018-Jun-19 22:00N 43°18' E 005°22'0 0.0
2018-Jun-19 21:30N 43°18' E 005°22'0 0.0
2018-Jun-19 21:00N 43°18' E 005°22'0 0.0
2018-Jun-19 20:30N 43°18' E 005°22'0 0.0
2018-Jun-19 20:00N 43°18' E 005°22'0 0.0
2018-Jun-19 19:30N 43°18' E 005°22'0 0.0
2018-Jun-19 19:00N 43°18' E 005°22'0 0.0
2018-Jun-19 18:30N 43°18' E 005°22'0 0.2
2018-Jun-19 18:00N 43°18' E 005°22'4 8.4
2018-Jun-19 17:30N 43°15' E 005°18'3813.1
2018-Jun-19 14:38N 42°56' E 006°03'1614.6
2018-Jun-19 13:32N 42°48' E 006°22'015.0
2018-Jun-19 13:30N 42°48' E 006°23'715.0
2018-Jun-19 13:00N 42°48' E 006°33'714.8
2018-Jun-19 12:30N 42°47' E 006°43'714.1
2018-Jun-19 12:00N 42°47' E 006°52'714.1
2018-Jun-19 11:30N 42°47' E 007°02'714.5
2018-Jun-19 11:00N 42°47' E 007°12'714.6
2018-Jun-19 10:30N 42°47' E 007°22'714.4
2018-Jun-19 10:00N 42°47' E 007°32'714.4
2018-Jun-19 09:30N 42°48' E 007°41'714.2
2018-Jun-19 09:00N 42°47' E 007°51'714.2
2018-Jun-19 08:30N 42°46' E 008°01'612.6
2018-Jun-19 08:00N 42°45' E 008°09'713.9
2018-Jun-19 07:30N 42°44' E 008°19'713.6
2018-Jun-19 07:01N 42°43' E 008°28'713.6
2018-Jun-19 06:30N 42°42' E 008°37'713.8
2018-Jun-19 06:00N 42°41' E 008°46'713.9
2018-Jun-19 05:30N 42°39' E 008°56'1 2.2
2018-Jun-19 05:00N 42°38' E 008°56'0 0.1
2018-Jun-19 04:30N 42°38' E 008°56'611.1
2018-Jun-19 04:00N 42°40' E 008°49'917.5
2018-Jun-19 03:29N 42°41' E 008°37'816.4
2018-Jun-19 02:59N 42°41' E 008°26'715.4
2018-Jun-19 02:30N 42°41' E 008°16'815.2
2018-Jun-19 02:00N 42°41' E 008°05'815.2
2018-Jun-19 01:30N 42°41' E 007°55'815.4
2018-Jun-19 00:58N 42°40' E 007°44'915.3
2018-Jun-19 00:21N 42°40' E 007°31'10712.3
2018-Jun-18 15:37N 43°12' E 005°11'311.5
2018-Jun-18 15:19N 43°16' E 005°11'410.7
2018-Jun-18 14:57N 43°18' E 005°15'5 2.3
2018-Jun-18 12:56N 43°20' E 005°21'0 0.0
2018-Jun-18 11:17N 43°20' E 005°21'0 0.0
2018-Jun-18 10:59N 43°20' E 005°21'0 0.0
2018-Jun-18 10:29N 43°20' E 005°21'0 0.0
2018-Jun-18 09:41N 43°20' E 005°21'0 0.0
2018-Jun-18 09:08N 43°20' E 005°21'0 0.0
2018-Jun-18 07:02N 43°20' E 005°21'0 0.0
2018-Jun-18 06:59N 43°20' E 005°21'0 0.0
2018-Jun-18 06:29N 43°20' E 005°21'0 0.0
2018-Jun-18 05:56N 43°20' E 005°21'0 0.0
2018-Jun-18 05:23N 43°20' E 005°21'0 0.0
2018-Jun-18 04:56N 43°20' E 005°21'0 0.0
2018-Jun-18 04:26N 43°20' E 005°21'0 0.0
2018-Jun-18 03:56N 43°20' E 005°21'0 0.0
2018-Jun-18 03:26N 43°20' E 005°21'0 0.0
2018-Jun-18 02:59N 43°20' E 005°21'0 0.0
2018-Jun-18 02:29N 43°20' E 005°21'0 0.0
2018-Jun-18 01:59N 43°20' E 005°21'0 0.0
2018-Jun-18 01:29N 43°20' E 005°21'0 0.0
2018-Jun-18 00:53N 43°20' E 005°21'0 0.0
2018-Jun-18 00:26N 43°20' E 005°21'0 0.0
2018-Jun-17 23:53N 43°20' E 005°21'0 0.0
2018-Jun-17 23:29N 43°20' E 005°21'0 0.0
2018-Jun-17 22:56N 43°20' E 005°21'0 0.0
2018-Jun-17 22:26N 43°20' E 005°21'0 0.0
2018-Jun-17 21:56N 43°20' E 005°21'0 0.0
2018-Jun-17 21:29N 43°20' E 005°21'0 0.0
2018-Jun-17 20:56N 43°20' E 005°21'0 0.0
2018-Jun-17 20:26N 43°20' E 005°21'0 0.0
2018-Jun-17 19:59N 43°20' E 005°21'0 0.0
2018-Jun-17 19:26N 43°20' E 005°21'0 0.0
2018-Jun-17 18:59N 43°20' E 005°21'0 0.0
2018-Jun-17 18:29N 43°20' E 005°21'0 0.0
2018-Jun-17 17:59N 43°20' E 005°21'0 0.0
2018-Jun-17 17:26N 43°20' E 005°21'0 0.0
2018-Jun-17 16:53N 43°20' E 005°21'0 0.0
2018-Jun-17 16:29N 43°20' E 005°21'0 0.0
2018-Jun-17 15:56N 43°20' E 005°21'0 0.0
2018-Jun-17 15:29N 43°20' E 005°21'0 0.0
2018-Jun-17 14:59N 43°20' E 005°21'0 0.0
2018-Jun-17 14:29N 43°20' E 005°21'0 0.0
2018-Jun-17 13:59N 43°20' E 005°21'0 0.0
2018-Jun-17 13:29N 43°20' E 005°21'0 0.0
2018-Jun-17 12:56N 43°20' E 005°21'0 0.0
2018-Jun-17 12:29N 43°20' E 005°21'0 0.0
2018-Jun-17 11:59N 43°20' E 005°21'0 0.0
2018-Jun-17 11:29N 43°20' E 005°21'0 0.0
2018-Jun-17 10:59N 43°20' E 005°21'0 0.0
2018-Jun-17 10:26N 43°20' E 005°21'0 0.0
2018-Jun-17 09:56N 43°20' E 005°21'0 0.0
2018-Jun-17 09:26N 43°20' E 005°21'0 0.0
2018-Jun-17 08:59N 43°20' E 005°21'0 0.0
2018-Jun-17 08:29N 43°20' E 005°21'0 0.0
2018-Jun-17 07:59N 43°20' E 005°21'0 0.0
2018-Jun-17 07:29N 43°20' E 005°21'0 0.0
2018-Jun-17 06:59N 43°20' E 005°21'0 0.0
2018-Jun-17 06:30N 43°20' E 005°21'1 2.5
2018-Jun-17 06:00N 43°21' E 005°20'510.8
2018-Jun-17 05:31N 43°15' E 005°18'3818.3
2018-Jun-17 03:26N 42°51' E 005°58'1018.0
2018-Jun-17 02:52N 42°46' E 006°10'616.9
2018-Jun-17 02:31N 42°42' E 006°17'917.3
2018-Jun-17 02:00N 42°38' E 006°26'917.3
2018-Jun-17 01:30N 42°33' E 006°36'917.2
2018-Jun-17 00:59N 42°28' E 006°46'917.6
2018-Jun-17 00:29N 42°23' E 006°57'817.7
2018-Jun-17 00:01N 42°18' E 007°06'918.0
2018-Jun-16 23:30N 42°13' E 007°16'918.0
2018-Jun-16 23:00N 42°08' E 007°26'36 1.6
2018-Jun-16 01:13N 41°48' E 008°05'518.2
2018-Jun-16 00:57N 41°50' E 008°00'818.2
2018-Jun-16 00:30N 41°55' E 007°50'918.3
2018-Jun-16 00:00N 41°60' E 007°41'918.1
2018-Jun-15 23:30N 42°05' E 007°31'918.0
2018-Jun-15 22:59N 42°11' E 007°21'918.0
2018-Jun-15 22:31N 42°15' E 007°11'917.6
2018-Jun-15 22:01N 42°20' E 007°00'917.6
2018-Jun-15 21:31N 42°24' E 006°50'918.0
2018-Jun-15 21:01N 42°29' E 006°40'918.1
2018-Jun-15 20:30N 42°35' E 006°31'6417.9
2018-Jun-15 16:54N 43°12' E 005°19'513.1
2018-Jun-15 16:30N 43°18' E 005°20'1 2.5
2018-Jun-15 15:58N 43°18' E 005°22'0 0.0
2018-Jun-15 15:31N 43°18' E 005°22'0 0.0
2018-Jun-15 15:01N 43°18' E 005°22'0 0.0
2018-Jun-15 13:55N 43°18' E 005°22'0 0.0
2018-Jun-15 13:25N 43°18' E 005°22'0 0.0
2018-Jun-15 13:01N 43°18' E 005°22'0 0.0
2018-Jun-15 12:31N 43°18' E 005°22'0 0.0
2018-Jun-15 11:58N 43°18' E 005°22'0 0.0
2018-Jun-15 11:31N 43°18' E 005°22'0 0.0
2018-Jun-15 11:01N 43°18' E 005°22'0 0.0
2018-Jun-15 10:31N 43°18' E 005°22'0 0.0
2018-Jun-15 10:01N 43°18' E 005°22'0 0.0
2018-Jun-15 09:28N 43°18' E 005°22'0 0.0
2018-Jun-15 09:01N 43°18' E 005°22'0 0.0
2018-Jun-15 08:28N 43°18' E 005°22'0 0.0
2018-Jun-15 07:55N 43°18' E 005°22'0 0.0
2018-Jun-15 07:25N 43°18' E 005°22'0 0.0
2018-Jun-15 07:01N 43°18' E 005°22'0 0.0
2018-Jun-15 06:28N 43°18' E 005°22'0 0.0
2018-Jun-15 06:00N 43°18' E 005°22'5 9.4
2018-Jun-15 05:30N 43°15' E 005°18'4717.6
2018-Jun-15 02:49N 42°46' E 006°09'619.5
2018-Jun-15 02:30N 42°43' E 006°16'  

Dump ship's entire track history